Time;durP1;ratioP1;P1;durP2;ratioP2;P2;SDS_P1;SDS_P2;PMS_P1;PMS_P2;Temp;Humidity;BMP_temperature;BMP_pressure;BME280_temperature;BME280_humidity;BME280_pressure;Samples;Min_cycle;Max_cycle;Signal;HPM_P1;HPM_P2
2023/01/31 00:01:06;;;;;;;8.17;2.40;;;;;;;;;;5091074;28;20472;-52
2023/01/31 00:03:32;;;;;;;10.13;2.43;;;;;;;;;;5091154;28;20927;-53
2023/01/31 00:05:58;;;;;;;9.40;2.60;;;;;;;;;;5091151;28;20998;-52
2023/01/31 00:08:24;;;;;;;9.10;2.53;;;;;;;;;;5091361;28;20532;-52
2023/01/31 00:10:50;;;;;;;11.13;2.77;;;;;;;;;;5091088;28;20198;-54
2023/01/31 00:13:17;;;;;;;6.43;2.70;;;;;;;;;;5090954;28;20238;-52
2023/01/31 00:15:43;;;;;;;9.67;2.60;;;;;;;;;;5091394;28;20199;-51
2023/01/31 00:18:09;;;;;;;14.77;3.60;;;;;;;;;;5091380;28;20790;-51
2023/01/31 00:20:35;;;;;;;12.07;2.90;;;;;;;;;;5091146;28;20199;-53
2023/01/31 00:23:01;;;;;;;13.20;3.03;;;;;;;;;;5091409;28;20203;-53
2023/01/31 00:25:27;;;;;;;11.77;2.90;;;;;;;;;;5091493;28;20509;-51
2023/01/31 00:27:53;;;;;;;17.67;3.80;;;;;;;;;;5091173;28;20291;-52
2023/01/31 00:30:20;;;;;;;11.50;3.73;;;;;;;;;;5093886;28;20227;-51
2023/01/31 00:32:46;;;;;;;7.77;2.80;;;;;;;;;;5095040;28;20301;-54
2023/01/31 00:35:12;;;;;;;9.70;3.47;;;;;;;;;;5095116;28;20930;-52
2023/01/31 00:37:38;;;;;;;8.77;3.17;;;;;;;;;;5095217;28;20466;-53
2023/01/31 00:40:05;;;;;;;11.23;2.83;;;;;;;;;;5094820;28;20954;-52
2023/01/31 00:42:31;;;;;;;9.60;3.10;;;;;;;;;;5095013;28;20439;-54
2023/01/31 00:44:57;;;;;;;10.30;3.20;;;;;;;;;;5093190;28;20515;-51
2023/01/31 00:47:24;;;;;;;11.27;3.73;;;;;;;;;;5094987;28;20528;-51
2023/01/31 00:49:50;;;;;;;14.53;3.30;;;;;;;;;;5094918;28;20210;-51
2023/01/31 00:52:16;;;;;;;13.40;3.53;;;;;;;;;;5095035;28;20453;-51
2023/01/31 00:54:42;;;;;;;11.57;4.30;;;;;;;;;;5095010;28;20201;-51
2023/01/31 00:57:08;;;;;;;7.53;3.27;;;;;;;;;;5094739;28;20936;-51
2023/01/31 00:59:34;;;;;;;15.63;4.27;;;;;;;;;;5094853;28;20253;-52
2023/01/31 01:02:00;;;;;;;15.23;4.00;;;;;;;;;;5094762;28;20246;-52
2023/01/31 01:04:27;;;;;;;12.13;3.40;;;;;;;;;;5094783;28;20304;-54
2023/01/31 01:06:53;;;;;;;7.03;3.10;;;;;;;;;;5094616;28;20203;-51
2023/01/31 01:09:21;;;;;;;17.03;4.17;;;;;;;;;;5094657;28;20807;-52
2023/01/31 01:11:47;;;;;;;14.07;3.97;;;;;;;;;;5094460;28;20198;-52
2023/01/31 01:14:13;;;;;;;19.33;3.97;;;;;;;;;;5094616;28;20483;-52
2023/01/31 01:16:40;;;;;;;14.10;3.83;;;;;;;;;;5094548;28;20260;-52
2023/01/31 01:19:07;;;;;;;16.87;3.57;;;;;;;;;;5094358;28;20275;-52
2023/01/31 01:21:39;;;;;;;14.70;3.70;;;;;;;;;;5094486;28;20440;-52
2023/01/31 01:24:06;;;;;;;15.20;3.53;;;;;;;;;;5094280;28;20531;-52
2023/01/31 01:26:33;;;;;;;13.23;3.83;;;;;;;;;;5094301;28;20452;-53
2023/01/31 01:29:00;;;;;;;13.83;3.40;;;;;;;;;;5093991;28;20439;-52
2023/01/31 01:31:29;;;;;;;11.67;3.43;;;;;;;;;;5094432;28;20518;-52
2023/01/31 01:33:57;;;;;;;15.07;4.00;;;;;;;;;;5094006;28;20473;-52
2023/01/31 01:36:24;;;;;;;16.13;4.50;;;;;;;;;;5094135;28;20482;-52
2023/01/31 01:38:52;;;;;;;14.77;3.83;;;;;;;;;;5093985;28;20441;-52
2023/01/31 01:41:19;;;;;;;13.00;3.43;;;;;;;;;;5093475;28;20468;-52
2023/01/31 01:43:46;;;;;;;13.63;3.47;;;;;;;;;;5094024;28;20433;-52
2023/01/31 01:46:15;;;;;;;14.60;3.60;;;;;;;;;;5094008;28;20468;-52
2023/01/31 01:48:42;;;;;;;7.37;2.83;;;;;;;;;;5093867;28;20506;-52
2023/01/31 01:51:08;;;;;;;15.43;3.23;;;;;;;;;;5093756;28;20436;-52
2023/01/31 01:53:37;;;;;;;15.07;3.80;;;;;;;;;;5093666;28;20572;-52
2023/01/31 01:56:06;;;;;;;15.10;3.70;;;;;;;;;;5093440;28;20451;-52
2023/01/31 01:58:46;;;;;;;12.23;3.20;;;;;;;;;;5093601;28;20444;-53
2023/01/31 02:01:15;;;;;;;12.63;3.00;;;;;;;;;;5093796;28;20441;-52
2023/01/31 02:03:41;;;;;;;16.07;3.40;;;;;;;;;;5093605;28;20421;-52
2023/01/31 02:06:07;;;;;;;11.13;3.03;;;;;;;;;;5093367;28;20448;-52
2023/01/31 02:08:36;;;;;;;14.90;4.60;;;;;;;;;;5093493;28;20490;-52
2023/01/31 02:11:04;;;;;;;13.10;3.47;;;;;;;;;;5093241;28;20433;-52
2023/01/31 02:13:31;;;;;;;11.80;3.00;;;;;;;;;;5093264;28;21032;-52
2023/01/31 02:15:57;;;;;;;10.50;3.60;;;;;;;;;;5093355;28;20440;-52
2023/01/31 02:18:24;;;;;;;19.97;4.47;;;;;;;;;;5093462;28;20445;-51
2023/01/31 02:21:07;;;;;;;15.13;3.37;;;;;;;;;;5093281;28;20870;-50
2023/01/31 02:23:46;;;;;;;18.10;4.33;;;;;;;;;;5093260;28;20429;-51
2023/01/31 02:26:25;;;;;;;14.70;3.87;;;;;;;;;;5093322;28;20907;-50
2023/01/31 02:28:59;;;;;;;13.83;3.60;;;;;;;;;;5093025;28;20455;-51
2023/01/31 02:31:37;;;;;;;15.20;3.63;;;;;;;;;;5093199;28;20471;-51
2023/01/31 02:34:08;;;;;;;16.10;3.63;;;;;;;;;;5092844;28;20484;-50
2023/01/31 02:39:41;;;;;;;13.43;3.80;;;;;;;;;;5092938;28;20396;-52
2023/01/31 02:42:13;;;;;;;16.40;3.30;;;;;;;;;;5092608;28;21157;-52
2023/01/31 02:45:00;;;;;;;13.50;3.20;;;;;;;;;;5092888;28;20460;-51
2023/01/31 02:47:31;;;;;;;16.60;4.10;;;;;;;;;;5092944;28;20436;-52
2023/01/31 02:50:01;;;;;;;13.70;3.90;;;;;;;;;;5092735;28;20437;-51
2023/01/31 02:52:30;;;;;;;9.30;2.87;;;;;;;;;;5091909;28;20484;-51
2023/01/31 02:57:46;;;;;;;13.33;3.87;;;;;;;;;;5092625;28;20416;-52
2023/01/31 03:00:13;;;;;;;11.50;3.77;;;;;;;;;;5092650;28;20433;-52
2023/01/31 03:02:39;;;;;;;19.20;3.93;;;;;;;;;;5092569;28;20429;-51
2023/01/31 03:05:07;;;;;;;14.73;3.43;;;;;;;;;;5092419;28;20436;-51
2023/01/31 03:07:34;;;;;;;14.37;3.10;;;;;;;;;;5092391;28;20444;-51
2023/01/31 03:10:08;;;;;;;13.23;4.13;;;;;;;;;;5092400;28;20467;-51
2023/01/31 03:12:41;;;;;;;16.63;3.53;;;;;;;;;;5092122;28;21022;-51
2023/01/31 03:15:12;;;;;;;16.93;3.70;;;;;;;;;;5092461;28;20510;-51
2023/01/31 03:17:45;;;;;;;18.40;3.70;;;;;;;;;;5092340;28;20437;-52
2023/01/31 03:20:16;;;;;;;16.40;3.37;;;;;;;;;;5092355;28;20460;-52
2023/01/31 03:22:44;;;;;;;11.73;3.40;;;;;;;;;;5092176;28;20938;-51
2023/01/31 03:25:11;;;;;;;16.57;4.23;;;;;;;;;;5092027;28;20431;-51
2023/01/31 03:27:39;;;;;;;12.83;3.40;;;;;;;;;;5092069;28;20471;-51
2023/01/31 03:30:06;;;;;;;13.23;3.17;;;;;;;;;;5091821;28;20521;-51
2023/01/31 03:32:34;;;;;;;14.53;3.30;;;;;;;;;;5091869;28;20527;-51
2023/01/31 03:35:00;;;;;;;10.80;2.90;;;;;;;;;;5091855;28;20451;-51
2023/01/31 03:37:31;;;;;;;13.13;3.13;;;;;;;;;;5092250;28;20476;-51
2023/01/31 03:40:00;;;;;;;13.30;3.60;;;;;;;;;;5091959;28;20482;-51
2023/01/31 03:42:28;;;;;;;16.57;3.60;;;;;;;;;;5091983;28;20487;-52
2023/01/31 03:44:56;;;;;;;14.27;4.17;;;;;;;;;;5091950;28;20435;-51
2023/01/31 03:47:24;;;;;;;13.40;3.67;;;;;;;;;;5091967;28;20524;-51
2023/01/31 03:49:51;;;;;;;11.67;3.50;;;;;;;;;;5091852;28;20440;-51
2023/01/31 03:52:22;;;;;;;13.57;3.80;;;;;;;;;;5091939;28;20448;-51
2023/01/31 03:54:52;;;;;;;18.30;3.67;;;;;;;;;;5091803;28;20919;-51
2023/01/31 03:57:21;;;;;;;10.30;3.27;;;;;;;;;;5091785;28;20449;-52
2023/01/31 03:59:52;;;;;;;15.90;3.77;;;;;;;;;;5091785;28;20466;-51
2023/01/31 04:02:20;;;;;;;11.17;3.33;;;;;;;;;;5091981;28;20479;-51
2023/01/31 04:04:48;;;;;;;12.87;3.53;;;;;;;;;;5095228;28;20439;-52
2023/01/31 04:07:14;;;;;;;13.73;3.40;;;;;;;;;;5096042;28;20441;-52
2023/01/31 04:09:40;;;;;;;15.37;3.67;;;;;;;;;;5095833;28;20440;-51
2023/01/31 04:12:11;;;;;;;20.83;3.93;;;;;;;;;;5095602;28;20442;-52
2023/01/31 04:14:37;;;;;;;17.93;2.87;;;;;;;;;;5095806;28;20469;-51
2023/01/31 04:17:03;;;;;;;12.13;3.60;;;;;;;;;;5095638;28;20547;-52
2023/01/31 04:19:29;;;;;;;16.30;3.90;;;;;;;;;;5095826;28;20190;-52
2023/01/31 04:21:55;;;;;;;11.43;3.20;;;;;;;;;;5095574;28;20199;-52
2023/01/31 04:24:21;;;;;;;10.73;3.10;;;;;;;;;;5095650;28;20503;-52
2023/01/31 04:26:47;;;;;;;18.77;3.63;;;;;;;;;;5095451;28;20205;-51
2023/01/31 04:29:14;;;;;;;10.87;2.97;;;;;;;;;;5095530;28;20234;-52
2023/01/31 04:31:40;;;;;;;12.43;3.57;;;;;;;;;;5095453;28;20445;-51
2023/01/31 04:34:06;;;;;;;17.07;3.40;;;;;;;;;;5095196;28;20877;-52
2023/01/31 04:36:32;;;;;;;12.47;3.30;;;;;;;;;;5095341;28;20440;-52
2023/01/31 04:38:59;;;;;;;16.50;4.07;;;;;;;;;;5095381;28;20206;-52
2023/01/31 04:41:25;;;;;;;9.70;3.23;;;;;;;;;;5095200;28;20222;-52
2023/01/31 04:43:51;;;;;;;10.40;3.10;;;;;;;;;;5095084;28;20436;-52
2023/01/31 04:46:19;;;;;;;10.70;3.70;;;;;;;;;;5095171;28;20198;-51
2023/01/31 04:48:45;;;;;;;10.43;3.03;;;;;;;;;;5095093;28;20673;-52
2023/01/31 04:51:11;;;;;;;15.30;3.17;;;;;;;;;;5095022;28;20429;-52
2023/01/31 04:53:37;;;;;;;14.40;3.53;;;;;;;;;;5095011;28;20279;-52
2023/01/31 04:56:04;;;;;;;14.73;3.90;;;;;;;;;;5094818;28;20837;-52
2023/01/31 04:58:30;;;;;;;13.27;3.50;;;;;;;;;;5094896;28;20704;-53
2023/01/31 05:00:56;;;;;;;15.07;3.67;;;;;;;;;;5094868;28;20486;-52
2023/01/31 05:03:24;;;;;;;15.23;3.07;;;;;;;;;;5094801;28;20922;-52
2023/01/31 05:05:50;;;;;;;11.73;3.03;;;;;;;;;;5094686;28;20460;-52
2023/01/31 05:08:16;;;;;;;13.27;3.00;;;;;;;;;;5094881;28;20512;-51
2023/01/31 05:10:42;;;;;;;12.10;3.30;;;;;;;;;;5094761;28;20482;-51
2023/01/31 05:13:08;;;;;;;16.60;4.33;;;;;;;;;;5094396;28;21020;-52
2023/01/31 05:15:34;;;;;;;9.30;3.40;;;;;;;;;;5093710;28;20433;-51
2023/01/31 05:18:03;;;;;;;11.77;2.80;;;;;;;;;;5094578;28;20817;-51
2023/01/31 05:20:32;;;;;;;15.27;3.30;;;;;;;;;;5094648;28;20425;-51
2023/01/31 05:22:58;;;;;;;13.33;3.23;;;;;;;;;;5094455;28;20436;-52
2023/01/31 05:25:25;;;;;;;11.63;3.63;;;;;;;;;;5094470;28;20441;-52
2023/01/31 05:27:51;;;;;;;14.43;3.43;;;;;;;;;;5094254;28;20476;-52
2023/01/31 05:30:17;;;;;;;13.47;3.27;;;;;;;;;;5094078;28;20460;-51
2023/01/31 05:32:44;;;;;;;10.90;2.87;;;;;;;;;;5094270;28;20965;-52
2023/01/31 05:35:10;;;;;;;11.47;3.50;;;;;;;;;;5094141;28;20472;-51
2023/01/31 05:37:41;;;;;;;13.53;3.43;;;;;;;;;;5094121;28;20955;-52
2023/01/31 05:40:08;;;;;;;15.13;3.60;;;;;;;;;;5094000;28;20440;-51
2023/01/31 05:42:34;;;;;;;13.53;3.67;;;;;;;;;;5094035;28;20447;-52
2023/01/31 05:45:00;;;;;;;18.10;3.07;;;;;;;;;;5094117;28;20516;-51
2023/01/31 05:47:26;;;;;;;16.57;3.10;;;;;;;;;;5093990;28;20190;-52
2023/01/31 05:49:52;;;;;;;13.30;3.53;;;;;;;;;;5093841;28;20429;-52
2023/01/31 05:52:18;;;;;;;14.63;3.80;;;;;;;;;;5094004;28;20206;-52
2023/01/31 05:54:45;;;;;;;13.90;3.93;;;;;;;;;;5093861;28;20231;-52
2023/01/31 05:57:13;;;;;;;10.60;3.30;;;;;;;;;;5093616;28;20199;-52
2023/01/31 05:59:39;;;;;;;8.23;2.57;;;;;;;;;;5093829;28;20773;-52
2023/01/31 06:02:05;;;;;;;10.33;3.40;;;;;;;;;;5093472;28;20983;-52
2023/01/31 06:04:31;;;;;;;16.07;3.27;;;;;;;;;;5093821;28;20433;-52
2023/01/31 06:06:57;;;;;;;14.07;3.27;;;;;;;;;;5093647;28;20483;-52
2023/01/31 06:09:23;;;;;;;11.93;3.60;;;;;;;;;;5093669;28;20660;-51
2023/01/31 06:11:50;;;;;;;12.53;4.20;;;;;;;;;;5093355;28;20256;-53
2023/01/31 06:14:16;;;;;;;20.97;5.40;;;;;;;;;;5093419;28;20534;-52
2023/01/31 06:16:42;;;;;;;12.83;3.57;;;;;;;;;;5093519;28;20449;-52
2023/01/31 06:19:08;;;;;;;11.63;3.57;;;;;;;;;;5093371;28;20198;-52
2023/01/31 06:21:35;;;;;;;9.37;2.57;;;;;;;;;;5093269;28;20498;-52
2023/01/31 06:24:01;;;;;;;10.87;3.23;;;;;;;;;;5093262;28;20203;-52
2023/01/31 06:26:27;;;;;;;6.30;2.73;;;;;;;;;;5093311;28;20472;-52
2023/01/31 06:28:54;;;;;;;13.60;3.03;;;;;;;;;;5092927;28;20986;-51
2023/01/31 06:31:20;;;;;;;14.20;3.43;;;;;;;;;;5093176;28;20448;-52
2023/01/31 06:33:46;;;;;;;13.27;3.57;;;;;;;;;;5092960;28;20620;-52
2023/01/31 06:36:12;;;;;;;11.47;3.33;;;;;;;;;;5093018;28;20449;-52
2023/01/31 06:38:38;;;;;;;13.03;3.63;;;;;;;;;;5093056;28;20194;-52
2023/01/31 06:41:04;;;;;;;11.73;3.63;;;;;;;;;;5092756;28;20618;-52
2023/01/31 06:43:30;;;;;;;12.43;3.87;;;;;;;;;;5092998;28;20238;-52
2023/01/31 06:45:57;;;;;;;9.77;3.53;;;;;;;;;;5092828;28;20971;-52
2023/01/31 06:48:23;;;;;;;11.93;3.50;;;;;;;;;;5092585;28;20206;-52
2023/01/31 06:50:49;;;;;;;16.00;3.30;;;;;;;;;;5092533;28;20439;-51
2023/01/31 06:53:15;;;;;;;15.03;4.00;;;;;;;;;;5092314;28;20214;-51
2023/01/31 06:55:41;;;;;;;12.47;3.17;;;;;;;;;;5092412;28;20228;-51
2023/01/31 06:58:07;;;;;;;14.23;3.87;;;;;;;;;;5092253;28;20221;-51
2023/01/31 07:00:33;;;;;;;15.47;4.27;;;;;;;;;;5092312;28;20281;-52
2023/01/31 07:03:01;;;;;;;12.07;4.43;;;;;;;;;;5092139;28;20516;-52
2023/01/31 07:05:27;;;;;;;15.20;4.53;;;;;;;;;;5092413;28;20199;-52
2023/01/31 07:07:53;;;;;;;11.20;4.57;;;;;;;;;;5092154;28;20940;-51
2023/01/31 07:10:19;;;;;;;14.50;4.43;;;;;;;;;;5092178;28;20444;-52
2023/01/31 07:12:45;;;;;;;9.40;4.20;;;;;;;;;;5092181;28;20202;-52
2023/01/31 07:15:11;;;;;;;13.50;4.57;;;;;;;;;;5092194;28;20295;-51
2023/01/31 07:17:37;;;;;;;17.40;4.13;;;;;;;;;;5091909;28;20429;-52
2023/01/31 07:20:05;;;;;;;19.77;4.80;;;;;;;;;;5092094;28;20436;-52
2023/01/31 07:22:31;;;;;;;18.00;4.83;;;;;;;;;;5092176;28;20558;-51
2023/01/31 07:24:57;;;;;;;15.10;5.83;;;;;;;;;;5091951;28;20425;-51
2023/01/31 07:27:23;;;;;;;11.43;4.23;;;;;;;;;;5091791;28;20573;-52
2023/01/31 07:29:49;;;;;;;10.80;4.80;;;;;;;;;;5091473;28;20238;-51
2023/01/31 07:32:15;;;;;;;18.90;4.83;;;;;;;;;;5091982;28;20199;-53
2023/01/31 07:34:41;;;;;;;18.73;4.67;;;;;;;;;;5091902;28;20665;-51
2023/01/31 07:37:08;;;;;;;14.00;5.30;;;;;;;;;;5091695;28;20195;-51
2023/01/31 07:39:34;;;;;;;15.13;4.87;;;;;;;;;;5091172;28;20202;-52
2023/01/31 07:42:00;;;;;;;17.77;5.20;;;;;;;;;;5091581;28;20798;-52
2023/01/31 07:44:26;;;;;;;10.77;5.20;;;;;;;;;;5092017;28;20191;-51
2023/01/31 07:46:55;;;;;;;17.93;5.17;;;;;;;;;;5091606;28;20482;-52
2023/01/31 07:49:21;;;;;;;17.43;5.87;;;;;;;;;;5091613;28;20644;-51
2023/01/31 07:51:47;;;;;;;20.43;6.40;;;;;;;;;;5091907;28;20506;-51
2023/01/31 07:54:15;;;;;;;16.10;5.30;;;;;;;;;;5091519;28;20480;-52
2023/01/31 07:56:41;;;;;;;17.13;5.20;;;;;;;;;;5091671;28;20444;-51
2023/01/31 07:59:07;;;;;;;14.40;5.33;;;;;;;;;;5091437;28;20425;-52
2023/01/31 08:04:18;;;;;;;21.63;6.50;;;;;;;;;;5091553;28;20197;-52
2023/01/31 08:06:44;;;;;;;14.33;5.83;;;;;;;;;;5091586;28;20539;-51
2023/01/31 08:09:10;;;;;;;13.03;5.67;;;;;;;;;;5091382;28;20452;-52
2023/01/31 08:11:37;;;;;;;19.63;6.00;;;;;;;;;;5091444;28;20437;-52
2023/01/31 08:14:04;;;;;;;18.43;5.93;;;;;;;;;;5091247;28;20234;-52
2023/01/31 08:16:30;;;;;;;28.13;5.77;;;;;;;;;;5091572;28;20433;-52
2023/01/31 08:18:56;;;;;;;14.70;5.43;;;;;;;;;;5091210;28;20456;-52
2023/01/31 08:21:22;;;;;;;13.37;5.47;;;;;;;;;;5091475;28;20441;-52
2023/01/31 08:23:48;;;;;;;15.17;5.97;;;;;;;;;;5091276;28;20195;-52
2023/01/31 08:26:15;;;;;;;14.97;5.90;;;;;;;;;;5091327;28;20520;-52
2023/01/31 08:28:43;;;;;;;16.67;6.33;;;;;;;;;;5091426;28;20448;-52
2023/01/31 08:31:11;;;;;;;19.40;6.63;;;;;;;;;;5091050;28;20468;-52
2023/01/31 08:33:37;;;;;;;20.10;6.97;;;;;;;;;;5091069;28;20815;-52
2023/01/31 08:36:10;;;;;;;16.33;6.53;;;;;;;;;;5091034;28;20494;-52
2023/01/31 08:38:36;;;;;;;15.27;6.43;;;;;;;;;;5091230;28;20195;-52
2023/01/31 08:41:02;;;;;;;17.90;6.40;;;;;;;;;;5090981;28;20463;-52
2023/01/31 08:43:28;;;;;;;18.40;7.43;;;;;;;;;;5091340;28;20241;-51
2023/01/31 08:45:55;;;;;;;13.50;6.03;;;;;;;;;;5091102;28;20191;-51
2023/01/31 08:48:21;;;;;;;20.57;7.70;;;;;;;;;;5090910;28;20461;-50
2023/01/31 08:50:47;;;;;;;16.23;7.00;;;;;;;;;;5092698;28;20995;-50
2023/01/31 08:53:13;;;;;;;19.43;7.70;;;;;;;;;;5094739;28;20306;-50
2023/01/31 08:55:39;;;;;;;20.90;8.10;;;;;;;;;;5094561;28;20684;-50
2023/01/31 08:58:05;;;;;;;18.10;8.07;;;;;;;;;;5094391;28;20222;-51
2023/01/31 09:00:31;;;;;;;23.10;7.93;;;;;;;;;;5094645;28;20190;-51
2023/01/31 09:03:00;;;;;;;16.93;8.40;;;;;;;;;;5094532;28;20198;-52
2023/01/31 09:05:26;;;;;;;17.30;8.00;;;;;;;;;;5094652;28;20486;-51
2023/01/31 09:07:52;;;;;;;16.20;8.90;;;;;;;;;;5094375;28;20437;-51
2023/01/31 09:10:19;;;;;;;15.70;8.47;;;;;;;;;;5094142;28;20896;-51
2023/01/31 09:12:45;;;;;;;22.43;9.27;;;;;;;;;;5094378;28;20195;-51
2023/01/31 09:15:12;;;;;;;21.43;7.90;;;;;;;;;;5094103;28;20515;-51
2023/01/31 09:17:38;;;;;;;15.63;9.53;;;;;;;;;;5094229;28;20433;-51
2023/01/31 09:20:08;;;;;;;18.87;9.70;;;;;;;;;;5093959;28;20432;-51
2023/01/31 09:22:34;;;;;;;25.73;10.27;;;;;;;;;;5094126;28;20433;-51
2023/01/31 09:25:00;;;;;;;23.30;10.30;;;;;;;;;;5094193;28;20901;-51
2023/01/31 09:27:26;;;;;;;19.87;10.20;;;;;;;;;;5094037;28;20480;-50
2023/01/31 09:29:52;;;;;;;22.13;9.83;;;;;;;;;;5093740;28;20520;-51
2023/01/31 09:32:19;;;;;;;22.27;9.87;;;;;;;;;;5093890;28;20289;-51
2023/01/31 09:34:47;;;;;;;20.20;10.03;;;;;;;;;;5093811;28;20270;-52
2023/01/31 09:37:14;;;;;;;23.73;10.63;;;;;;;;;;5093826;28;20474;-51
2023/01/31 09:39:40;;;;;;;22.43;10.40;;;;;;;;;;5093792;28;20958;-52
2023/01/31 09:42:12;;;;;;;22.73;11.13;;;;;;;;;;5093649;28;20453;-52
2023/01/31 09:44:40;;;;;;;22.47;10.53;;;;;;;;;;5087929;28;20237;-52
2023/01/31 09:47:09;;;;;;;19.47;10.73;;;;;;;;;;5093229;28;20453;-53
2023/01/31 09:49:39;;;;;;;18.70;10.53;;;;;;;;;;5093243;28;20437;-52
2023/01/31 09:52:05;;;;;;;24.57;10.90;;;;;;;;;;5091432;28;20437;-49
2023/01/31 09:54:34;;;;;;;17.87;10.03;;;;;;;;;;5093611;28;20472;-50
2023/01/31 09:57:04;;;;;;;23.23;10.50;;;;;;;;;;5093097;28;20620;-52
2023/01/31 09:59:35;;;;;;;21.93;10.20;;;;;;;;;;5093338;28;20528;-53
2023/01/31 10:02:08;;;;;;;24.27;11.43;;;;;;;;;;5092937;28;20470;-54
2023/01/31 10:04:39;;;;;;;21.73;10.60;;;;;;;;;;5093336;28;20455;-52
2023/01/31 10:07:09;;;;;;;20.30;9.67;;;;;;;;;;5086807;28;20450;-52
2023/01/31 10:09:40;;;;;;;18.07;9.97;;;;;;;;;;5092672;28;20474;-52
2023/01/31 10:12:10;;;;;;;18.50;9.43;;;;;;;;;;5089166;28;20437;-51
2023/01/31 10:14:38;;;;;;;18.40;10.37;;;;;;;;;;5093108;28;20848;-52
2023/01/31 10:17:10;;;;;;;18.80;10.50;;;;;;;;;;5092647;28;20523;-51
2023/01/31 10:19:39;;;;;;;20.93;10.03;;;;;;;;;;5093024;28;20533;-51
2023/01/31 10:22:07;;;;;;;18.43;9.60;;;;;;;;;;5092845;28;20817;-51
2023/01/31 10:24:36;;;;;;;19.00;10.13;;;;;;;;;;5092915;28;20998;-51
2023/01/31 10:27:06;;;;;;;23.73;10.10;;;;;;;;;;5092835;28;20867;-51
2023/01/31 10:29:34;;;;;;;19.23;9.83;;;;;;;;;;5092692;28;20997;-52
2023/01/31 10:32:03;;;;;;;18.63;9.97;;;;;;;;;;5092798;28;20845;-51
2023/01/31 10:34:32;;;;;;;23.90;10.50;;;;;;;;;;5092896;28;20468;-52
2023/01/31 10:36:59;;;;;;;16.77;9.30;;;;;;;;;;5090443;28;20960;-50
2023/01/31 10:39:27;;;;;;;20.90;10.37;;;;;;;;;;5092526;28;20445;-51
2023/01/31 10:42:03;;;;;;;16.20;9.43;;;;;;;;;;5092233;28;20635;-51
2023/01/31 10:44:34;;;;;;;20.57;9.80;;;;;;;;;;5092672;28;20270;-51
2023/01/31 10:47:00;;;;;;;17.67;9.63;;;;;;;;;;5092339;28;20464;-51
2023/01/31 10:49:27;;;;;;;16.93;10.00;;;;;;;;;;5092380;28;20862;-51
2023/01/31 10:52:03;;;;;;;17.97;10.03;;;;;;;;;;5092184;28;20452;-51
2023/01/31 10:54:35;;;;;;;22.17;10.33;;;;;;;;;;5092324;28;20480;-51
2023/01/31 10:57:01;;;;;;;21.67;9.33;;;;;;;;;;5092020;28;20449;-51
2023/01/31 10:59:30;;;;;;;19.03;9.00;;;;;;;;;;5092153;28;20432;-51
2023/01/31 11:01:58;;;;;;;15.67;9.60;;;;;;;;;;5092058;28;20205;-51
2023/01/31 11:04:27;;;;;;;18.60;9.10;;;;;;;;;;5092017;28;20498;-50
2023/01/31 11:06:53;;;;;;;18.17;8.73;;;;;;;;;;5091795;28;20927;-51
2023/01/31 11:09:21;;;;;;;22.23;9.33;;;;;;;;;;5091916;28;20502;-51
2023/01/31 11:11:55;;;;;;;15.73;8.40;;;;;;;;;;5092108;28;20220;-51
2023/01/31 11:14:21;;;;;;;21.50;9.10;;;;;;;;;;5091017;28;20535;-51
2023/01/31 11:16:47;;;;;;;19.47;9.30;;;;;;;;;;5091866;28;20457;-51
2023/01/31 11:19:18;;;;;;;15.20;9.03;;;;;;;;;;5091832;28;20183;-51
2023/01/31 11:21:48;;;;;;;16.07;9.07;;;;;;;;;;5092018;28;20214;-51
2023/01/31 11:24:16;;;;;;;22.30;9.60;;;;;;;;;;5091810;28;20191;-51
2023/01/31 11:26:48;;;;;;;17.47;8.83;;;;;;;;;;5091703;28;20523;-51
2023/01/31 11:29:17;;;;;;;17.73;8.73;;;;;;;;;;5091563;28;20266;-51
2023/01/31 11:31:46;;;;;;;13.80;8.33;;;;;;;;;;5091680;28;20433;-50
2023/01/31 11:34:22;;;;;;;13.50;8.47;;;;;;;;;;5091428;28;20599;-50
2023/01/31 11:36:48;;;;;;;17.10;9.53;;;;;;;;;;5091599;28;20235;-51
2023/01/31 11:39:27;;;;;;;16.30;8.80;;;;;;;;;;5091529;28;20935;-50
2023/01/31 11:41:53;;;;;;;17.33;8.90;;;;;;;;;;5091298;28;20210;-50
2023/01/31 11:44:20;;;;;;;14.33;8.43;;;;;;;;;;5091463;28;20444;-50
2023/01/31 11:46:49;;;;;;;15.40;8.87;;;;;;;;;;5091356;28;20437;-50
2023/01/31 11:49:19;;;;;;;17.37;8.67;;;;;;;;;;5091383;28;20950;-51
2023/01/31 11:51:48;;;;;;;16.40;9.37;;;;;;;;;;5091456;28;20433;-50
2023/01/31 11:54:17;;;;;;;14.73;8.73;;;;;;;;;;5091361;28;20534;-51
2023/01/31 11:56:45;;;;;;;18.87;9.17;;;;;;;;;;5091177;28;20440;-51
2023/01/31 11:59:13;;;;;;;15.87;9.00;;;;;;;;;;5091150;28;20963;-51
2023/01/31 12:01:44;;;;;;;16.10;8.97;;;;;;;;;;5091322;28;20626;-51
2023/01/31 12:04:14;;;;;;;13.80;8.73;;;;;;;;;;5091326;28;20433;-51
2023/01/31 12:06:41;;;;;;;18.97;9.13;;;;;;;;;;5091217;28;20672;-50
2023/01/31 12:09:20;;;;;;;16.80;8.73;;;;;;;;;;5091150;28;20449;-52
2023/01/31 12:11:49;;;;;;;16.53;9.63;;;;;;;;;;5091244;28;20203;-51
2023/01/31 12:14:18;;;;;;;15.50;8.50;;;;;;;;;;5091070;28;20575;-52
2023/01/31 12:16:45;;;;;;;18.27;9.83;;;;;;;;;;5091319;28;20464;-51
2023/01/31 12:19:17;;;;;;;20.73;9.47;;;;;;;;;;5091139;28;20734;-51
2023/01/31 12:21:48;;;;;;;11.17;8.27;;;;;;;;;;5091310;28;20252;-51
2023/01/31 12:24:22;;;;;;;15.63;8.87;;;;;;;;;;5092064;28;20202;-51
2023/01/31 12:26:50;;;;;;;16.00;10.10;;;;;;;;;;5094887;28;20966;-51
2023/01/31 12:29:24;;;;;;;13.80;9.10;;;;;;;;;;5094940;28;21080;-51
2023/01/31 12:32:05;;;;;;;18.60;9.87;;;;;;;;;;5094585;28;20471;-50
2023/01/31 12:34:38;;;;;;;13.30;8.90;;;;;;;;;;5094773;28;20480;-51
2023/01/31 12:37:10;;;;;;;17.47;10.37;;;;;;;;;;5094693;28;20202;-51
2023/01/31 12:39:44;;;;;;;17.03;9.70;;;;;;;;;;5094768;28;20198;-51
2023/01/31 12:42:31;;;;;;;17.00;9.40;;;;;;;;;;5094672;28;20556;-51
2023/01/31 12:45:05;;;;;;;16.53;9.87;;;;;;;;;;5089826;28;20280;-51
2023/01/31 12:47:39;;;;;;;16.87;10.60;;;;;;;;;;5094761;28;20471;-50
2023/01/31 12:50:13;;;;;;;16.53;9.73;;;;;;;;;;5094308;28;20793;-51
2023/01/31 12:52:44;;;;;;;19.13;10.27;;;;;;;;;;5094681;28;20256;-50
2023/01/31 12:55:17;;;;;;;17.60;10.97;;;;;;;;;;5094403;28;20214;-51
2023/01/31 12:57:48;;;;;;;15.80;10.97;;;;;;;;;;5094729;28;20202;-50
2023/01/31 13:00:21;;;;;;;15.73;10.53;;;;;;;;;;5094508;28;20436;-51
2023/01/31 13:02:54;;;;;;;19.50;10.57;;;;;;;;;;5094699;28;20440;-50
2023/01/31 13:05:26;;;;;;;16.63;9.73;;;;;;;;;;5094188;28;20440;-50
2023/01/31 13:07:55;;;;;;;12.00;9.83;;;;;;;;;;5094149;28;20201;-50
2023/01/31 13:10:27;;;;;;;17.47;10.10;;;;;;;;;;5094512;28;20452;-50
2023/01/31 13:12:54;;;;;;;14.23;10.00;;;;;;;;;;5094343;28;20456;-52
2023/01/31 13:15:24;;;;;;;17.00;10.47;;;;;;;;;;5093998;28;20575;-51
2023/01/31 13:17:52;;;;;;;13.40;10.23;;;;;;;;;;5094071;28;20266;-51
2023/01/31 13:20:22;;;;;;;17.37;9.50;;;;;;;;;;5094171;28;20521;-51
2023/01/31 13:22:49;;;;;;;15.27;9.93;;;;;;;;;;5094114;28;20199;-51
2023/01/31 13:25:17;;;;;;;13.33;10.20;;;;;;;;;;5093853;28;20219;-51
2023/01/31 13:27:48;;;;;;;16.70;10.17;;;;;;;;;;5093956;28;20437;-51
2023/01/31 13:30:17;;;;;;;13.57;9.50;;;;;;;;;;5093807;28;20534;-51
2023/01/31 13:32:46;;;;;;;12.00;9.23;;;;;;;;;;5093910;28;20515;-51
2023/01/31 13:35:16;;;;;;;11.27;8.90;;;;;;;;;;5093751;28;20469;-52
2023/01/31 13:37:44;;;;;;;11.67;8.90;;;;;;;;;;5093134;28;20433;-51
2023/01/31 13:40:16;;;;;;;11.07;8.97;;;;;;;;;;5093361;28;20441;-51
2023/01/31 13:42:42;;;;;;;11.97;9.50;;;;;;;;;;5093711;28;20835;-51
2023/01/31 13:45:18;;;;;;;11.93;9.17;;;;;;;;;;5093461;28;20522;-52
2023/01/31 13:47:47;;;;;;;10.17;9.17;;;;;;;;;;5093687;28;20484;-52
2023/01/31 13:50:18;;;;;;;15.20;9.60;;;;;;;;;;5093484;28;20491;-52
2023/01/31 13:52:46;;;;;;;12.67;9.43;;;;;;;;;;5093679;28;20444;-52
2023/01/31 13:55:16;;;;;;;11.97;9.70;;;;;;;;;;5093223;28;20488;-52
2023/01/31 13:57:46;;;;;;;10.07;8.80;;;;;;;;;;5093494;28;20433;-52
2023/01/31 14:00:26;;;;;;;12.70;8.70;;;;;;;;;;5093264;28;20658;-51
2023/01/31 14:03:01;;;;;;;9.30;8.30;;;;;;;;;;5093009;28;20967;-51
2023/01/31 14:05:50;;;;;;;11.27;8.80;;;;;;;;;;5093526;28;20244;-51
2023/01/31 14:08:27;;;;;;;10.67;8.63;;;;;;;;;;5093199;28;20451;-52
2023/01/31 14:10:53;;;;;;;10.50;8.47;;;;;;;;;;5093033;28;20444;-51
2023/01/31 14:13:26;;;;;;;10.90;8.13;;;;;;;;;;5092903;28;20437;-50
2023/01/31 14:15:54;;;;;;;11.30;8.70;;;;;;;;;;5092962;28;20447;-51
2023/01/31 14:18:40;;;;;;;10.67;7.73;;;;;;;;;;5092706;28;20441;-51
2023/01/31 14:21:24;;;;;;;9.03;8.10;;;;;;;;;;5092812;28;20444;-51
2023/01/31 14:23:50;;;;;;;10.60;7.57;;;;;;;;;;5092891;28;20429;-52
2023/01/31 14:26:34;;;;;;;10.90;8.53;;;;;;;;;;5092674;28;20441;-52
2023/01/31 14:29:00;;;;;;;9.53;8.37;;;;;;;;;;5092714;28;20248;-52
2023/01/31 14:31:27;;;;;;;10.57;7.93;;;;;;;;;;5092836;28;20945;-52
2023/01/31 14:33:56;;;;;;;9.97;8.10;;;;;;;;;;5092530;28;20498;-52
2023/01/31 14:36:33;;;;;;;9.47;7.90;;;;;;;;;;5092433;28;20449;-52
2023/01/31 14:39:18;;;;;;;11.20;8.23;;;;;;;;;;5092610;28;21041;-51
2023/01/31 14:41:53;;;;;;;10.50;8.57;;;;;;;;;;5092818;28;20505;-51
2023/01/31 14:44:26;;;;;;;9.27;8.37;;;;;;;;;;5092543;28;20427;-51